Time;durP1;ratioP1;P1;durP2;ratioP2;P2;SDS_P1;SDS_P2;PMS_P1;PMS_P2;Temp;Humidity;BMP_temperature;BMP_pressure;BME280_temperature;BME280_humidity;BME280_pressure;Samples;Min_cycle;Max_cycle;Signal;HPM_P1;HPM_P2
2022/12/05 00:00:52;;;;;;;98.05;87.63;;;;;;;3.48;100.00;102497.66;5055478;28;20052;-85
2022/12/05 00:03:19;;;;;;;57.35;51.85;;;;;;;3.43;100.00;102498.00;5055111;28;20049;-84
2022/12/05 00:05:46;;;;;;;47.10;43.08;;;;;;;3.49;100.00;102496.69;5059494;28;20052;-83
2022/12/05 00:08:12;;;;;;;43.67;40.15;;;;;;;3.39;100.00;102485.22;5060968;28;20469;-84
2022/12/05 00:10:40;;;;;;;43.75;40.28;;;;;;;3.26;100.00;102490.53;5065416;28;20102;-85
2022/12/05 00:13:07;;;;;;;42.92;39.38;;;;;;;3.33;100.00;102490.91;5063586;28;20115;-84
2022/12/05 00:15:38;;;;;;;47.45;43.35;;;;;;;3.28;100.00;102487.81;5061129;28;20362;-85
2022/12/05 00:18:05;;;;;;;43.15;39.75;;;;;;;3.29;100.00;102497.34;5054609;28;20049;-82
2022/12/05 00:20:32;;;;;;;42.20;39.05;;;;;;;3.22;100.00;102502.22;5054622;28;20052;-85
2022/12/05 00:22:58;;;;;;;42.90;39.50;;;;;;;3.21;100.00;102511.91;5054108;28;20496;-85
2022/12/05 00:25:25;;;;;;;43.53;39.97;;;;;;;3.21;100.00;102516.31;5061192;28;20045;-84
2022/12/05 00:27:52;;;;;;;44.45;40.92;;;;;;;3.36;100.00;102512.53;5065102;28;20113;-85
2022/12/05 00:30:19;;;;;;;42.47;39.03;;;;;;;3.33;100.00;102518.03;5054469;28;20044;-84
2022/12/05 00:32:47;;;;;;;45.40;41.90;;;;;;;3.31;100.00;102519.09;5054698;28;20045;-81
2022/12/05 00:35:14;;;;;;;44.00;40.50;;;;;;;3.32;100.00;102518.97;5057237;28;20044;-82
2022/12/05 00:37:41;;;;;;;43.92;40.40;;;;;;;3.35;100.00;102517.91;5060681;28;20405;-83
2022/12/05 00:40:09;;;;;;;44.28;40.75;;;;;;;3.33;100.00;102525.03;5060018;28;20056;-85
2022/12/05 00:42:36;;;;;;;45.88;42.47;;;;;;;3.27;100.00;102515.84;5064246;28;20048;-83
2022/12/05 00:45:04;;;;;;;44.28;41.00;;;;;;;3.30;100.00;102515.63;5062496;28;20056;-85
2022/12/05 00:47:31;;;;;;;43.75;40.45;;;;;;;3.28;100.00;102512.28;5059202;28;20440;-83
2022/12/05 00:49:59;;;;;;;42.50;39.20;;;;;;;3.30;100.00;102514.78;5064142;28;20428;-85
2022/12/05 00:52:27;;;;;;;43.63;40.42;;;;;;;3.31;100.00;102519.94;5066746;28;20044;-82
2022/12/05 00:54:54;;;;;;;40.83;37.80;;;;;;;3.27;100.00;102515.00;5061877;28;20052;-82
2022/12/05 00:57:22;;;;;;;41.95;38.50;;;;;;;3.41;100.00;102510.38;5054596;28;20052;-82
2022/12/05 00:59:49;;;;;;;43.42;40.30;;;;;;;3.59;100.00;102508.16;5054629;28;20057;-83
2022/12/05 01:02:16;;;;;;;44.58;41.17;;;;;;;3.27;100.00;102497.47;5134818;22;20500;-86
2022/12/05 01:04:43;;;;;;;44.35;40.97;;;;;;;3.25;100.00;102498.53;5028647;28;20049;-88
2022/12/05 01:07:12;;;;;;;44.10;40.70;;;;;;;3.16;100.00;102500.88;5027747;28;20108;-87
2022/12/05 01:09:39;;;;;;;42.83;39.42;;;;;;;3.20;100.00;102499.69;5024661;28;20049;-87
2022/12/05 01:12:06;;;;;;;42.53;39.20;;;;;;;3.22;100.00;102497.81;5023208;28;20367;-87
2022/12/05 01:14:33;;;;;;;45.63;41.97;;;;;;;3.16;100.00;102490.38;5025663;28;20145;-85
2022/12/05 01:17:00;;;;;;;42.17;39.08;;;;;;;3.10;100.00;102487.38;5021014;28;20076;-85
2022/12/05 01:19:30;;;;;;;41.88;38.67;;;;;;;3.18;100.00;102490.28;5029843;28;20481;-85
2022/12/05 01:21:57;;;;;;;40.95;37.85;;;;;;;3.09;100.00;102480.47;5025890;28;20050;-87
2022/12/05 01:24:26;;;;;;;43.75;40.22;;;;;;;3.33;100.00;102476.00;5017550;28;20042;-84
2022/12/05 01:26:54;;;;;;;45.67;41.88;;;;;;;3.24;100.00;102473.22;5033461;28;20045;-85
2022/12/05 01:29:23;;;;;;;41.90;38.75;;;;;;;3.07;100.00;102471.84;5027834;28;20056;-87
2022/12/05 01:31:50;;;;;;;41.03;37.70;;;;;;;3.04;100.00;102474.72;5027037;28;20046;-87
2022/12/05 01:34:18;;;;;;;43.05;39.85;;;;;;;3.08;100.00;102474.34;5026478;28;20045;-85
2022/12/05 01:36:45;;;;;;;45.20;41.90;;;;;;;3.05;100.00;102471.94;5021901;28;20058;-84
2022/12/05 01:39:13;;;;;;;43.08;39.72;;;;;;;3.09;100.00;102469.97;5029197;28;20461;-86
2022/12/05 01:41:44;;;;;;;41.92;38.63;;;;;;;3.09;100.00;102462.09;5032139;28;20041;-85
2022/12/05 01:44:44;;;;;;;40.22;37.22;;;;;;;3.02;100.00;102452.97;5025917;28;20038;-85
2022/12/05 01:47:11;;;;;;;41.92;38.83;;;;;;;3.06;100.00;102451.81;5025632;28;20111;-87
2022/12/05 01:49:41;;;;;;;44.22;41.03;;;;;;;3.10;100.00;102466.38;5029099;28;20096;-87
2022/12/05 01:52:13;;;;;;;43.17;40.03;;;;;;;3.07;100.00;102461.34;5028338;28;20054;-85
2022/12/05 01:54:40;;;;;;;42.65;39.38;;;;;;;3.07;100.00;102466.59;5031420;28;20045;-86
2022/12/05 01:57:11;;;;;;;40.92;38.00;;;;;;;3.10;100.00;102467.22;5028917;28;20456;-84
2022/12/05 01:59:40;;;;;;;42.13;38.63;;;;;;;3.12;100.00;102464.47;5026761;28;20119;-87
2022/12/05 02:02:08;;;;;;;38.72;35.72;;;;;;;3.05;100.00;102465.88;5019855;28;20054;-86
2022/12/05 02:04:39;;;;;;;40.10;36.97;;;;;;;3.13;100.00;102459.09;5025098;28;20048;-84
2022/12/05 02:07:06;;;;;;;40.45;37.45;;;;;;;3.05;100.00;102464.06;5029174;28;20046;-84
2022/12/05 02:09:33;;;;;;;40.90;37.75;;;;;;;3.05;100.00;102463.25;5026878;28;20042;-87
2022/12/05 02:12:03;;;;;;;41.15;38.15;;;;;;;3.05;100.00;102458.81;5027193;28;20104;-89
2022/12/05 02:14:42;;;;;;;43.45;40.25;;;;;;;3.05;100.00;102455.38;5025084;28;20052;-88
2022/12/05 02:17:16;;;;;;;41.83;38.55;;;;;;;3.24;100.00;102452.19;5031405;28;20068;-85
2022/12/05 02:20:03;;;;;;;42.28;39.05;;;;;;;3.25;100.00;102457.34;5029710;28;20072;-88
2022/12/05 02:23:03;;;;;;;43.17;39.67;;;;;;;3.14;100.00;102449.44;5022273;28;20050;-88
2022/12/05 02:25:54;;;;;;;42.13;38.92;;;;;;;3.15;100.00;102449.34;5024732;28;20057;-89
2022/12/05 02:28:44;;;;;;;41.60;38.45;;;;;;;3.09;100.00;102448.97;5032155;28;20045;-87
2022/12/05 02:31:18;;;;;;;45.72;41.95;;;;;;;3.13;100.00;102443.34;5025465;28;20041;-86
2022/12/05 02:33:48;;;;;;;44.03;40.33;;;;;;;3.10;100.00;102453.25;5027921;28;20046;-88
2022/12/05 02:36:21;;;;;;;46.78;43.20;;;;;;;3.03;100.00;102454.66;5028395;28;20481;-88
2022/12/05 02:38:57;;;;;;;47.15;43.47;;;;;;;3.13;100.00;102451.22;5022803;28;20129;-87
2022/12/05 02:41:30;;;;;;;44.65;41.10;;;;;;;3.10;100.00;102443.59;5016195;28;20449;-89
2022/12/05 02:44:03;;;;;;;43.83;40.22;;;;;;;3.05;100.00;102448.31;5009750;28;20528;-87
2022/12/05 02:46:34;;;;;;;42.75;39.22;;;;;;;3.07;100.00;102448.22;5016393;28;20037;-88
2022/12/05 02:49:05;;;;;;;43.30;39.80;;;;;;;3.09;100.00;102444.53;5015651;28;20593;-87
2022/12/05 02:51:38;;;;;;;41.90;38.70;;;;;;;3.02;100.00;102461.69;5017756;28;20053;-88
2022/12/05 02:54:08;;;;;;;;;;;;;;;3.05;100.00;102460.63;5027624;28;20041;-87
2022/12/05 02:56:36;;;;;;;43.08;39.63;;;;;;;3.14;100.00;102459.94;5031192;28;19921;-88
2022/12/05 02:59:04;;;;;;;45.90;42.40;;;;;;;2.90;100.00;102457.34;5023956;28;20042;-85
2022/12/05 03:04:41;;;;;;;43.03;39.42;;;;;;;2.97;100.00;102448.09;5101405;27;20403;-88
2022/12/05 03:07:22;;;;;;;43.10;39.60;;;;;;;3.24;100.00;102455.69;5087483;28;20117;-87
2022/12/05 03:09:54;;;;;;;45.22;41.65;;;;;;;3.25;100.00;102443.38;5091880;28;20044;-86
2022/12/05 03:12:22;;;;;;;;;;;;;;;3.06;100.00;102451.81;5091580;28;20056;-86
2022/12/05 03:14:54;;;;;;;43.45;40.15;;;;;;;3.05;100.00;102450.94;5075183;28;19920;-85
2022/12/05 03:17:46;;;;;;;48.20;44.30;;;;;;;3.07;100.00;102450.84;5090175;28;20488;-87
2022/12/05 03:20:25;;;;;;;55.25;50.40;;;;;;;3.00;100.00;102447.84;5073461;28;20053;-87
2022/12/05 03:22:59;;;;;;;49.33;45.28;;;;;;;3.18;100.00;102453.53;5089761;28;20041;-87
2022/12/05 03:25:35;;;;;;;49.38;45.40;;;;;;;3.36;100.00;102449.50;5090551;28;20047;-86
2022/12/05 03:28:24;;;;;;;48.58;44.35;;;;;;;3.15;100.00;102451.13;5091322;28;20131;-87
2022/12/05 03:30:55;;;;;;;65.40;59.20;;;;;;;2.97;100.00;102440.22;5090871;28;20044;-87
2022/12/05 03:33:35;;;;;;;57.30;52.10;;;;;;;2.97;100.00;102435.78;5090928;28;20052;-87
2022/12/05 03:36:12;;;;;;;59.85;54.15;;;;;;;2.97;100.00;102433.16;5091521;28;20725;-84
2022/12/05 03:38:46;;;;;;;57.33;51.78;;;;;;;2.98;100.00;102442.69;5082594;28;20059;-86
2022/12/05 03:41:25;;;;;;;65.55;59.17;;;;;;;3.00;100.00;102439.97;5080993;28;20103;-87
2022/12/05 03:44:01;;;;;;;57.25;51.95;;;;;;;2.97;100.00;102432.34;5090378;28;20052;-84
2022/12/05 03:46:37;;;;;;;56.22;51.03;;;;;;;2.94;100.00;102429.94;5080788;28;20117;-87
2022/12/05 03:49:20;;;;;;;53.67;48.67;;;;;;;3.00;100.00;102432.09;5090662;28;20067;-85
2022/12/05 03:51:54;;;;;;;62.85;56.55;;;;;;;2.96;100.00;102447.22;5079870;28;20078;-88
2022/12/05 03:57:12;;;;;;;52.38;47.78;;;;;;;2.92;100.00;102451.03;5132476;27;20374;-82
2022/12/05 03:59:42;;;;;;;47.33;43.30;;;;;;;2.88;100.00;102452.22;5126273;28;20120;-82
2022/12/05 04:02:27;;;;;;;49.05;44.80;;;;;;;2.94;100.00;102450.94;5117297;27;20052;-85
2022/12/05 04:05:28;;;;;;;45.15;41.35;;;;;;;3.00;100.00;102455.72;5111689;28;20063;-85
2022/12/05 04:08:16;;;;;;;47.90;43.90;;;;;;;2.97;100.00;102448.91;5112091;28;20109;-86
2022/12/05 04:10:49;;;;;;;58.67;52.90;;;;;;;2.91;100.00;102446.75;5111743;28;20055;-85
2022/12/05 04:13:34;;;;;;;50.13;45.58;;;;;;;3.29;100.00;102445.66;5111993;28;20120;-85
2022/12/05 04:19:19;;;;;;;52.33;47.75;;;;;;;2.85;100.00;102444.56;5109403;28;20090;-85
2022/12/05 04:21:52;;;;;;;46.45;42.58;;;;;;;2.74;100.00;102449.75;5111103;28;20044;-84
2022/12/05 04:27:23;;;;;;;52.90;48.30;;;;;;;2.80;100.00;102454.56;5102063;28;20146;-83
2022/12/05 04:30:20;;;;;;;53.47;49.17;;;;;;;2.85;100.00;102441.13;5110856;28;20100;-84
2022/12/05 04:33:02;;;;;;;50.67;46.40;;;;;;;2.89;100.00;102443.38;5106288;28;20109;-86
2022/12/05 04:35:42;;;;;;;61.78;56.08;;;;;;;2.87;100.00;102444.44;5106177;28;20438;-86
2022/12/05 04:38:14;;;;;;;48.85;44.65;;;;;;;2.86;100.00;102445.41;5128625;28;20048;-87
2022/12/05 04:40:52;;;;;;;51.78;47.38;;;;;;;2.82;100.00;102433.47;5107409;28;20111;-83
2022/12/05 04:43:21;;;;;;;56.92;51.80;;;;;;;2.71;100.00;102421.97;5096104;28;20044;-84
2022/12/05 04:46:00;;;;;;;57.65;51.90;;;;;;;2.81;100.00;102432.59;5106681;28;20051;-85
2022/12/05 04:48:28;;;;;;;58.92;53.35;;;;;;;2.92;100.00;102444.94;5108919;28;20058;-86
2022/12/05 04:50:58;;;;;;;43.58;39.88;;;;;;;2.80;100.00;102437.97;5094972;28;20048;-83
2022/12/05 04:53:30;;;;;;;45.95;41.70;;;;;;;2.85;100.00;102449.00;5130390;27;20120;-86
2022/12/05 04:56:05;;;;;;;44.10;40.55;;;;;;;2.85;100.00;102449.00;5103449;28;20056;-83
2022/12/05 04:58:43;;;;;;;43.65;40.15;;;;;;;2.85;100.00;102456.88;5118380;28;20043;-85
2022/12/05 05:01:22;;;;;;;44.38;40.97;;;;;;;2.88;100.00;102461.88;5130951;27;20048;-85
2022/12/05 05:03:53;;;;;;;60.05;55.20;;;;;;;2.91;100.00;102459.88;5111220;27;20056;-85
2022/12/05 05:06:22;;;;;;;55.00;50.70;;;;;;;2.89;100.00;102460.94;5108133;28;20109;-84
2022/12/05 05:08:51;;;;;;;43.50;39.80;;;;;;;2.89;100.00;102469.63;5084740;28;20540;-85
2022/12/05 05:11:28;;;;;;;48.08;43.35;;;;;;;2.89;100.00;102463.56;5117174;28;20051;-85
2022/12/05 05:13:56;;;;;;;46.17;42.40;;;;;;;2.87;100.00;102463.66;5106252;28;20048;-85
2022/12/05 05:16:27;;;;;;;43.00;39.33;;;;;;;2.86;100.00;102458.53;5088496;28;20106;-86
2022/12/05 05:18:54;;;;;;;43.78;40.17;;;;;;;2.81;100.00;102455.41;5084769;28;20119;-83
2022/12/05 05:21:34;;;;;;;41.58;37.97;;;;;;;2.90;100.00;102460.78;5097958;28;20051;-87
2022/12/05 05:24:11;;;;;;;41.50;38.30;;;;;;;2.98;100.00;102462.88;5111692;28;20063;-86
2022/12/05 05:26:41;;;;;;;43.80;40.50;;;;;;;2.87;100.00;102465.44;5086460;28;20048;-83
2022/12/05 05:29:20;;;;;;;40.00;37.00;;;;;;;3.16;100.00;102458.03;5089426;28;20051;-86
2022/12/05 05:31:58;;;;;;;39.05;36.15;;;;;;;2.90;100.00;102463.41;5093048;28;20127;-86
2022/12/05 05:34:27;;;;;;;40.58;37.17;;;;;;;2.95;100.00;102460.47;5093436;28;20058;-84
2022/12/05 05:39:40;;;;;;;40.85;37.65;;;;;;;2.84;100.00;102465.66;5087221;27;20401;-86
2022/12/05 05:42:08;;;;;;;42.85;39.20;;;;;;;2.82;100.00;102454.47;5081893;28;20568;-84
2022/12/05 05:44:45;;;;;;;50.72;46.17;;;;;;;2.97;100.00;102454.16;5055500;28;20123;-87
2022/12/05 05:47:21;;;;;;;48.85;44.55;;;;;;;2.81;100.00;102453.59;5074148;28;20049;-87
2022/12/05 05:49:48;;;;;;;47.08;43.03;;;;;;;2.62;100.00;102440.16;5092385;28;20059;-86
2022/12/05 05:52:21;;;;;;;47.83;43.63;;;;;;;2.97;100.00;102448.09;5089346;28;20048;-87
2022/12/05 05:54:50;;;;;;;50.65;46.13;;;;;;;2.67;100.00;102459.88;5079719;28;20052;-86
2022/12/05 05:57:31;;;;;;;58.87;53.07;;;;;;;2.64;100.00;102457.47;5086664;28;20500;-87
2022/12/05 05:59:58;;;;;;;54.00;48.83;;;;;;;2.64;100.00;102457.47;5091143;28;20113;-85
2022/12/05 06:02:26;;;;;;;60.70;54.50;;;;;;;2.68;100.00;102442.34;5083726;28;20122;-84
2022/12/05 06:04:53;;;;;;;51.45;46.55;;;;;;;2.70;100.00;102449.16;5071952;28;20067;-84
2022/12/05 06:07:31;;;;;;;41.95;38.67;;;;;;;2.94;100.00;102443.06;5084833;28;20534;-87
2022/12/05 06:09:59;;;;;;;50.08;45.35;;;;;;;2.86;100.00;102453.28;5077850;28;20056;-84
2022/12/05 06:12:27;;;;;;;41.95;38.58;;;;;;;2.89;100.00;102442.56;5071224;28;20063;-86
2022/12/05 06:14:55;;;;;;;47.90;43.85;;;;;;;2.72;100.00;102442.03;5071069;28;20060;-84
2022/12/05 06:17:32;;;;;;;52.47;47.83;;;;;;;2.86;100.00;102451.50;5070503;28;20049;-86
2022/12/05 06:19:59;;;;;;;70.80;63.38;;;;;;;2.83;100.00;102456.13;5066977;28;20075;-84
2022/12/05 06:22:34;;;;;;;55.15;49.95;;;;;;;2.91;100.00;102461.66;5070993;28;20045;-88
2022/12/05 06:25:02;;;;;;;43.85;40.13;;;;;;;3.12;100.00;102453.97;5071038;28;20110;-85
2022/12/05 06:27:31;;;;;;;53.60;48.70;;;;;;;2.88;100.00;102456.63;5070888;28;20064;-85
2022/12/05 06:29:59;;;;;;;61.78;55.95;;;;;;;2.95;100.00;102458.69;5071009;28;20063;-87
2022/12/05 06:32:36;;;;;;;48.38;44.30;;;;;;;3.07;100.00;102458.72;5053467;28;20057;-86
2022/12/05 06:35:14;;;;;;;49.53;45.05;;;;;;;3.07;100.00;102466.59;5064168;28;20041;-85
2022/12/05 06:37:41;;;;;;;42.67;39.58;;;;;;;3.07;100.00;102463.97;5078700;28;20080;-84
2022/12/05 06:40:10;;;;;;;38.65;35.95;;;;;;;3.08;100.00;102461.22;5087620;28;20492;-84
2022/12/05 06:42:39;;;;;;;40.55;37.67;;;;;;;3.09;100.00;102464.72;5084873;28;20059;-87
2022/12/05 06:45:07;;;;;;;38.35;35.75;;;;;;;3.25;100.00;102470.47;5071096;28;20052;-88
2022/12/05 06:47:37;;;;;;;42.65;39.55;;;;;;;3.90;100.00;102474.28;5071798;28;20052;-86
2022/12/05 06:50:08;;;;;;;40.60;37.80;;;;;;;4.02;100.00;102473.31;5062021;28;20557;-86
2022/12/05 06:52:35;;;;;;;41.17;38.25;;;;;;;3.75;100.00;102476.31;5054657;28;20064;-84
2022/12/05 06:55:07;;;;;;;41.65;38.85;;;;;;;3.51;100.00;102475.53;5049335;28;20049;-85
2022/12/05 06:57:42;;;;;;;41.33;38.60;;;;;;;3.27;100.00;102475.59;5036839;28;20083;-87
2022/12/05 07:03:11;;;;;;;43.75;40.85;;;;;;;4.03;100.00;102475.00;5042487;28;20044;-86
2022/12/05 07:05:39;;;;;;;44.40;41.30;;;;;;;4.31;100.00;102478.09;5076676;28;20118;-84
2022/12/05 07:08:16;;;;;;;43.28;40.38;;;;;;;4.10;100.00;102480.63;5037428;28;20057;-88
2022/12/05 07:11:11;;;;;;;45.42;42.22;;;;;;;4.04;100.00;102489.81;5037252;28;20386;-84
2022/12/05 07:13:39;;;;;;;47.60;44.40;;;;;;;3.63;100.00;102470.22;5023067;28;20484;-84
2022/12/05 07:16:38;;;;;;;43.13;40.00;;;;;;;3.45;100.00;102476.88;5057138;28;20041;-87
2022/12/05 07:19:07;;;;;;;43.10;40.00;;;;;;;3.58;100.00;102485.47;5055935;28;20079;-84
2022/12/05 07:21:42;;;;;;;40.75;37.85;;;;;;;3.51;100.00;102484.28;5068816;28;20492;-85
2022/12/05 07:24:11;;;;;;;44.65;41.15;;;;;;;3.52;100.00;102491.19;5056354;28;20045;-86
2022/12/05 07:26:41;;;;;;;43.38;40.58;;;;;;;3.95;100.00;102493.16;5057194;28;20060;-88
2022/12/05 07:29:10;;;;;;;45.08;42.13;;;;;;;3.73;100.00;102490.53;5056785;28;20057;-84
2022/12/05 07:31:40;;;;;;;46.22;42.92;;;;;;;3.49;100.00;102493.22;5056494;28;20528;-85
2022/12/05 07:34:15;;;;;;;49.80;46.15;;;;;;;3.58;100.00;102503.03;5055595;28;20150;-84
2022/12/05 07:36:42;;;;;;;52.05;47.92;;;;;;;3.54;100.00;102491.94;5053987;28;20056;-85
2022/12/05 07:39:10;;;;;;;51.90;48.20;;;;;;;3.84;100.00;102501.03;5047911;28;20059;-87
2022/12/05 07:41:41;;;;;;;55.00;51.20;;;;;;;3.73;100.00;102504.50;5056543;28;20052;-87
2022/12/05 07:44:12;;;;;;;55.15;50.85;;;;;;;3.76;100.00;102500.81;5056636;28;20402;-84
2022/12/05 07:46:40;;;;;;;49.83;46.13;;;;;;;3.63;100.00;102501.75;5056035;28;20500;-84
2022/12/05 07:49:27;;;;;;;53.03;49.03;;;;;;;3.75;100.00;102505.22;5047379;28;20452;-89
2022/12/05 07:52:00;;;;;;;59.20;54.50;;;;;;;3.72;100.00;102505.44;5040965;28;20045;-88
2022/12/05 07:54:58;;;;;;;56.17;51.97;;;;;;;3.68;100.00;102504.84;5058947;28;20547;-87
2022/12/05 07:57:31;;;;;;;46.90;43.67;;;;;;;3.89;100.00;102504.97;5056646;28;20106;-86
2022/12/05 07:59:59;;;;;;;46.45;43.13;;;;;;;4.53;100.00;102509.59;5056067;28;20053;-87
2022/12/05 08:02:27;;;;;;;52.85;48.75;;;;;;;4.30;100.00;102510.63;5041773;28;20041;-84
2022/12/05 08:05:09;;;;;;;49.83;46.28;;;;;;;4.00;100.00;102512.06;5055713;28;20056;-87
2022/12/05 08:07:37;;;;;;;51.35;47.45;;;;;;;4.12;100.00;102515.53;5056081;28;20118;-86
2022/12/05 08:10:05;;;;;;;53.58;49.35;;;;;;;4.02;100.00;102511.91;5045844;28;20049;-84
2022/12/05 08:12:34;;;;;;;48.97;45.58;;;;;;;4.96;100.00;102516.69;5035991;28;20111;-86
2022/12/05 08:15:21;;;;;;;41.88;39.08;;;;;;;4.42;100.00;102520.19;5054028;28;20106;-87
2022/12/05 08:17:57;;;;;;;42.17;39.38;;;;;;;4.23;100.00;102522.56;5035641;28;20049;-87
2022/12/05 08:20:25;;;;;;;41.85;39.05;;;;;;;4.18;100.00;102522.94;5035628;28;20053;-85
2022/12/05 08:22:53;;;;;;;41.90;39.03;;;;;;;4.17;100.00;102520.41;5053250;28;20053;-85
2022/12/05 08:25:29;;;;;;;44.17;41.25;;;;;;;4.42;100.00;102524.56;5054911;28;20111;-84
2022/12/05 08:27:59;;;;;;;47.47;44.38;;;;;;;4.46;100.00;102520.75;5055524;28;20045;-87
2022/12/05 08:30:27;;;;;;;45.15;42.15;;;;;;;4.22;100.00;102507.75;5054535;28;20114;-86
2022/12/05 08:33:22;;;;;;;47.90;44.88;;;;;;;4.47;100.00;102506.63;5062230;28;20504;-88
2022/12/05 08:35:54;;;;;;;48.70;45.13;;;;;;;4.32;100.00;102506.88;5036969;28;20076;-84
2022/12/05 08:38:21;;;;;;;45.72;42.65;;;;;;;4.18;100.00;102519.47;5051181;28;20060;-83
2022/12/05 08:41:12;;;;;;;44.13;40.90;;;;;;;4.24;100.00;102521.63;5054958;28;20134;-88
2022/12/05 08:43:41;;;;;;;50.92;46.70;;;;;;;4.35;100.00;102519.78;5035589;28;20122;-87
2022/12/05 08:46:10;;;;;;;46.83;43.50;;;;;;;4.23;100.00;102509.41;5047077;28;20070;-85
2022/12/05 08:48:41;;;;;;;46.10;42.70;;;;;;;4.42;100.00;102512.28;5060711;28;20478;-87
2022/12/05 08:51:11;;;;;;;44.28;41.35;;;;;;;4.31;100.00;102501.75;5035350;28;20076;-84
2022/12/05 08:54:17;;;;;;;45.10;42.20;;;;;;;4.25;100.00;102510.13;5037344;28;20131;-88
2022/12/05 08:56:55;;;;;;;45.47;42.47;;;;;;;4.58;100.00;102507.47;5055176;28;20056;-87
2022/12/05 08:59:22;;;;;;;44.83;41.67;;;;;;;4.42;100.00;102509.66;5062999;28;20399;-84
2022/12/05 09:01:52;;;;;;;42.92;40.13;;;;;;;4.35;100.00;102506.63;5053856;28;20488;-88
2022/12/05 09:04:37;;;;;;;44.80;42.00;;;;;;;4.31;100.00;102493.88;5060712;28;20045;-87
2022/12/05 09:07:33;;;;;;;43.35;40.65;;;;;;;4.35;100.00;102495.28;5071893;28;20105;-88
2022/12/05 09:10:00;;;;;;;44.72;41.63;;;;;;;4.35;100.00;102496.13;5074662;28;20117;-86
2022/12/05 09:12:35;;;;;;;44.28;41.15;;;;;;;4.42;100.00;102491.22;5074385;28;20500;-88
2022/12/05 09:15:04;;;;;;;51.80;47.42;;;;;;;4.43;100.00;102502.59;5054774;28;20052;-84
2022/12/05 09:17:32;;;;;;;46.25;43.13;;;;;;;4.42;100.00;102493.88;5054030;28;20064;-88
2022/12/05 09:20:21;;;;;;;46.60;43.50;;;;;;;4.56;100.00;102490.13;5053682;28;20107;-87
2022/12/05 09:22:49;;;;;;;46.92;43.63;;;;;;;4.49;100.00;102475.78;5054014;28;20053;-85
2022/12/05 09:25:35;;;;;;;44.50;41.50;;;;;;;4.68;100.00;102469.88;5038080;28;20053;-88
2022/12/05 09:28:16;;;;;;;42.75;40.00;;;;;;;4.64;100.00;102477.19;5034304;28;20139;-90
2022/12/05 09:52:04;;;;;;;47.97;44.30;;;;;;;4.58;100.00;102433.75;5118418;27;20412;-93
2022/12/05 09:54:31;;;;;;;43.20;40.10;;;;;;;4.45;100.00;102427.84;5106201;28;20055;-93
2022/12/05 09:56:59;;;;;;;43.40;40.30;;;;;;;4.81;100.00;102426.63;5106613;28;20040;-92
2022/12/05 09:59:26;;;;;;;43.58;40.60;;;;;;;4.57;100.00;102423.38;5104661;28;20086;-92
2022/12/05 10:02:02;;;;;;;42.25;39.42;;;;;;;4.41;100.00;102420.31;5105315;28;20049;-92
2022/12/05 10:04:51;;;;;;;44.58;41.35;;;;;;;4.55;100.00;102420.84;5101073;28;20052;-93
2022/12/05 10:07:25;;;;;;;46.97;43.63;;;;;;;4.93;100.00;102430.06;5106245;28;20044;-93
2022/12/05 10:10:07;;;;;;;44.22;41.13;;;;;;;4.72;100.00;102408.97;5107896;28;20084;-92
2022/12/05 10:13:01;;;;;;;43.17;40.17;;;;;;;4.63;100.00;102408.84;5106727;28;20131;-95
2022/12/05 10:15:33;;;;;;;44.88;41.88;;;;;;;5.10;100.00;102415.47;5104416;28;20108;-92
2022/12/05 10:18:10;;;;;;;45.08;41.97;;;;;;;5.04;100.00;102408.06;5113376;28;20028;-95
2022/12/05 10:20:47;;;;;;;45.33;42.33;;;;;;;5.00;100.00;102409.31;5106117;28;20054;-94
2022/12/05 10:23:21;;;;;;;44.38;41.55;;;;;;;4.67;100.00;102390.06;5106290;28;20075;-94
2022/12/05 10:25:52;;;;;;;41.17;38.47;;;;;;;4.84;100.00;102407.09;5106615;28;20059;-94
2022/12/05 11:17:02;;;;;;;50.30;46.88;;;;;;;5.97;100.00;102330.69;5139665;27;20387;-93
2022/12/05 11:19:32;;;;;;;54.10;50.10;;;;;;;5.74;100.00;102330.88;5138299;27;20077;-92
2022/12/05 11:21:59;;;;;;;51.35;47.50;;;;;;;5.74;100.00;102320.31;5135262;27;20044;-92
2022/12/05 11:24:29;;;;;;;49.63;46.13;;;;;;;6.12;100.00;102328.50;5134660;27;20051;-92
2022/12/05 11:26:56;;;;;;;54.30;50.60;;;;;;;5.93;100.00;102305.53;5134674;27;20097;-93
2022/12/05 11:29:33;;;;;;;49.45;46.15;;;;;;;5.92;100.00;102309.13;5130234;28;20060;-92
2022/12/05 11:32:03;;;;;;;50.60;46.92;;;;;;;6.12;100.00;102326.69;5138169;28;20051;-92
2022/12/05 11:34:38;;;;;;;51.05;47.25;;;;;;;6.27;100.00;102315.72;5128067;28;20582;-92
2022/12/05 11:37:12;;;;;;;50.03;46.55;;;;;;;6.21;100.00;102324.19;5137506;28;20048;-93
2022/12/05 11:39:39;;;;;;;49.15;45.65;;;;;;;6.19;100.00;102314.59;5132772;27;20054;-92
2022/12/05 11:42:33;;;;;;;49.75;45.95;;;;;;;5.94;100.00;102318.59;5133413;28;20048;-92
2022/12/05 11:45:45;;;;;;;47.10;43.80;;;;;;;6.13;100.00;102319.59;5139524;28;20070;-95
2022/12/05 11:48:24;;;;;;;45.13;41.97;;;;;;;6.10;100.00;102315.44;5121759;28;20052;-92
2022/12/05 11:51:06;;;;;;;47.67;44.22;;;;;;;6.08;100.00;102320.03;5132372;28;20047;-94
2022/12/05 11:53:52;;;;;;;56.17;51.72;;;;;;;6.04;100.00;102302.78;5135021;28;20107;-94
2022/12/05 11:56:31;;;;;;;50.67;47.00;;;;;;;5.87;100.00;102304.28;5137819;27;20051;-93
2022/12/05 11:59:22;;;;;;;45.15;42.05;;;;;;;5.83;100.00;102294.94;5127294;27;20047;-95
2022/12/05 12:01:56;;;;;;;43.97;40.88;;;;;;;5.82;100.00;102305.66;5130247;27;20058;-94
2022/12/05 12:04:44;;;;;;;45.55;42.25;;;;;;;5.93;100.00;102298.50;5134504;28;20059;-95
2022/12/05 12:07:25;;;;;;;46.20;43.10;;;;;;;6.00;100.00;102292.66;5134552;28;20052;-94
2022/12/05 12:10:03;;;;;;;46.97;43.58;;;;;;;6.14;100.00;102287.81;5133878;28;20055;-94
2022/12/05 12:12:41;;;;;;;46.40;43.20;;;;;;;5.92;100.00;102298.56;5139010;28;20051;-95
2022/12/05 12:15:24;;;;;;;46.42;43.15;;;;;;;5.99;100.00;102298.88;5132960;28;20496;-94
2022/12/05 12:17:58;;;;;;;43.60;40.60;;;;;;;5.80;100.00;102295.22;5110763;28;20044;-94
2022/12/05 12:20:42;;;;;;;46.50;43.20;;;;;;;5.84;100.00;102293.13;5104769;28;20040;-91
2022/12/05 12:23:27;;;;;;;46.80;43.60;;;;;;;5.81;100.00;102285.50;5103475;28;20052;-94
2022/12/05 12:26:13;;;;;;;46.10;42.90;;;;;;;5.97;100.00;102272.66;5101581;28;20044;-94
2022/12/05 12:28:50;;;;;;;44.97;41.72;;;;;;;5.76;100.00;102280.66;5111060;28;20071;-93
2022/12/05 12:31:40;;;;;;;45.90;42.53;;;;;;;6.04;100.00;102288.78;5107481;28;20083;-93
2022/12/05 12:34:24;;;;;;;46.55;43.30;;;;;;;5.64;100.00;102284.38;5104653;28;20107;-94
2022/12/05 12:37:01;;;;;;;48.17;44.67;;;;;;;5.57;100.00;102281.44;5112801;28;20059;-94
2022/12/05 15:34:50;;;;;;;52.22;47.08;;;;;;;5.08;100.00;102235.66;5090844;27;1675498;-92
2022/12/05 15:37:22;;;;;;;51.58;46.50;;;;;;;5.05;100.00;102233.28;5122518;28;20052;-92
2022/12/05 15:39:53;;;;;;;51.70;46.88;;;;;;;5.08;100.00;102229.56;5136128;28;20043;-92
2022/12/05 22:24:15;;;;;;;61.58;54.72;;;;;;;4.90;100.00;102098.53;6291271;22;1424890;-92
2022/12/05 23:23:43;;;;;;;54.15;48.42;;;;;;;4.76;100.00;102012.06;6303643;22;20216;-94
2022/12/05 23:26:22;;;;;;;52.47;47.17;;;;;;;4.81;100.00;102010.69;6328077;22;20011;-94
2022/12/05 23:28:49;;;;;;;52.65;47.50;;;;;;;4.76;100.00;102018.13;6334438;22;20026;-94
2022/12/05 23:31:20;;;;;;;53.50;48.13;;;;;;;4.73;100.00;102018.41;6333980;22;20023;-94
2022/12/05 23:33:49;;;;;;;52.60;47.40;;;;;;;4.78;100.00;102026.75;6334413;22;20042;-94
2022/12/05 23:36:16;;;;;;;50.33;45.33;;;;;;;4.76;100.00;102026.03;6335670;22;20010;-93
2022/12/05 23:39:07;;;;;;;52.70;47.40;;;;;;;4.73;100.00;102012.31;6336008;22;20010;-93
2022/12/05 23:41:40;;;;;;;51.15;45.63;;;;;;;4.76;100.00;102023.41;6336073;22;19999;-93